createdAt,value
2023-04-19T00:01:33.418Z,6.12
2023-04-19T00:04:03.530Z,6.04
2023-04-19T00:06:35.954Z,6.00
2023-04-19T00:09:04.907Z,6.01
2023-04-19T00:11:36.354Z,5.94
2023-04-19T00:14:06.157Z,5.92
2023-04-19T00:16:45.142Z,5.91
2023-04-19T00:19:15.489Z,5.88
2023-04-19T00:21:45.678Z,5.84
2023-04-19T00:24:14.947Z,5.82
2023-04-19T00:26:43.938Z,5.78
2023-04-19T00:29:12.749Z,5.72
2023-04-19T00:31:41.903Z,5.70
2023-04-19T00:34:10.528Z,5.66
2023-04-19T00:36:43.412Z,5.63
2023-04-19T00:39:15.706Z,5.58
2023-04-19T00:41:48.808Z,5.62
2023-04-19T00:44:17.582Z,5.57
2023-04-19T00:46:48.756Z,5.54
2023-04-19T00:49:18.275Z,5.54
2023-04-19T00:51:47.164Z,5.49
2023-04-19T00:54:21.015Z,5.46
2023-04-19T00:59:32.505Z,5.38
2023-04-19T01:02:02.864Z,5.39
2023-04-19T01:04:34.669Z,5.38
2023-04-19T01:07:06.693Z,5.31
2023-04-19T01:09:37.251Z,5.33
2023-04-19T01:12:17.708Z,5.23
2023-04-19T01:14:47.801Z,5.23
2023-04-19T01:17:28.537Z,5.20
2023-04-19T01:20:13.853Z,5.11
2023-04-19T01:22:47.067Z,5.09
2023-04-19T01:25:16.448Z,5.07
2023-04-19T01:27:46.395Z,5.04
2023-04-19T01:30:15.554Z,5.03
2023-04-19T01:32:44.745Z,4.99
2023-04-19T01:35:16.068Z,4.96
2023-04-19T01:37:47.187Z,4.92
2023-04-19T01:40:16.848Z,4.90
2023-04-19T01:42:45.646Z,4.91
2023-04-19T01:45:14.726Z,4.89
2023-04-19T01:47:45.214Z,4.85
2023-04-19T01:50:25.248Z,4.80
2023-04-19T01:52:56.477Z,4.82
2023-04-19T01:55:26.958Z,4.82
2023-04-19T01:57:56.288Z,4.77
2023-04-19T02:00:32.720Z,4.72
2023-04-19T02:03:02.580Z,4.67
2023-04-19T02:05:35.625Z,4.66
2023-04-19T02:08:06.427Z,4.66
2023-04-19T02:10:40.234Z,4.62
2023-04-19T02:15:58.990Z,4.59
2023-04-19T02:18:36.401Z,4.62
2023-04-19T02:21:06.848Z,4.57
2023-04-19T02:23:38.054Z,4.54
2023-04-19T02:26:09.590Z,4.57
2023-04-19T02:28:41.168Z,4.55
2023-04-19T02:31:10.356Z,4.48
2023-04-19T02:33:40.769Z,4.49
2023-04-19T02:36:12.427Z,4.40
2023-04-19T02:38:42.572Z,4.41
2023-04-19T02:41:11.172Z,4.43
2023-04-19T02:43:39.881Z,4.43
2023-04-19T02:46:10.608Z,4.37
2023-04-19T02:48:39.835Z,4.37
2023-04-19T02:51:09.104Z,4.34
2023-04-19T02:53:38.290Z,4.27
2023-04-19T02:56:10.327Z,4.28
2023-04-19T02:58:39.226Z,4.23
2023-04-19T03:01:08.427Z,4.23
2023-04-19T03:03:37.632Z,4.23
2023-04-19T03:06:15.494Z,4.21
2023-04-19T03:08:44.285Z,4.15
2023-04-19T03:11:26.725Z,4.14
2023-04-19T03:13:55.912Z,4.15
2023-04-19T03:16:25.318Z,4.11
2023-04-19T03:18:56.005Z,4.08
2023-04-19T03:21:27.698Z,4.07
2023-04-19T03:24:00.789Z,4.06
2023-04-19T03:26:31.782Z,4.00
2023-04-19T03:29:01.844Z,3.99
2023-04-19T03:31:42.372Z,4.00
2023-04-19T03:34:11.842Z,4.00
2023-04-19T03:36:59.314Z,3.96
2023-04-19T03:39:29.153Z,3.97
2023-04-19T03:42:07.077Z,3.97
2023-04-19T03:44:38.347Z,3.99
2023-04-19T03:49:53.166Z,3.93
2023-04-19T03:52:23.796Z,3.95
2023-04-19T03:54:54.654Z,4.02
2023-04-19T03:57:26.617Z,4.09
2023-04-19T04:00:07.363Z,4.09
2023-04-19T04:02:46.434Z,4.07
2023-04-19T04:05:17.004Z,4.11
2023-04-19T04:07:46.400Z,4.14
2023-04-19T04:10:15.298Z,4.24
2023-04-19T04:12:45.670Z,4.24
2023-04-19T04:15:32.390Z,4.28
2023-04-19T04:18:01.612Z,4.29
2023-04-19T04:20:33.020Z,4.35
2023-04-19T04:23:04.613Z,4.44
2023-04-19T04:25:37.829Z,4.45
2023-04-19T04:28:13.016Z,4.45
2023-04-19T04:30:43.263Z,4.51
2023-04-19T04:33:27.496Z,4.56
2023-04-19T04:36:01.189Z,4.58
2023-04-19T04:38:34.970Z,4.63
2023-04-19T04:41:05.263Z,4.63
2023-04-19T04:46:26.464Z,4.69
2023-04-19T04:48:56.029Z,4.65
2023-04-19T04:51:28.782Z,4.75
2023-04-19T04:53:59.147Z,4.76
2023-04-19T04:56:28.069Z,4.84
2023-04-19T04:58:59.560Z,4.82
2023-04-19T05:01:30.630Z,4.92
2023-04-19T05:04:03.896Z,4.93
2023-04-19T05:06:33.219Z,4.96
2023-04-19T05:09:03.999Z,5.08
2023-04-19T05:11:32.950Z,5.15
2023-04-19T05:14:03.337Z,5.16
2023-04-19T05:16:32.699Z,5.22
2023-04-19T05:19:01.741Z,5.24
2023-04-19T05:21:38.526Z,5.30
2023-04-19T05:24:10.720Z,5.37
2023-04-19T05:26:40.837Z,5.42
2023-04-19T05:29:12.167Z,5.49
2023-04-19T05:31:41.567Z,5.61
2023-04-19T05:34:13.460Z,5.75
2023-04-19T05:36:43.652Z,5.81
2023-04-19T05:39:18.648Z,5.79
2023-04-19T05:41:54.612Z,5.87
2023-04-19T05:44:41.402Z,5.85
2023-04-19T05:47:22.132Z,5.89
2023-04-19T05:49:51.068Z,5.94
2023-04-19T05:52:35.167Z,5.95
2023-04-19T05:55:06.563Z,6.12
2023-04-19T05:57:38.895Z,6.25
2023-04-19T06:00:13.616Z,6.41
2023-04-19T06:02:44.678Z,6.50
2023-04-19T06:05:25.733Z,6.61
2023-04-19T06:08:02.686Z,6.70
2023-04-19T06:10:44.477Z,6.76
2023-04-19T06:13:23.485Z,6.89
2023-04-19T06:15:54.991Z,7.03
2023-04-19T06:18:25.002Z,7.04
2023-04-19T06:20:55.119Z,7.06
2023-04-19T06:23:34.481Z,7.10
2023-04-19T06:26:03.762Z,7.12
2023-04-19T06:28:33.218Z,7.19
2023-04-19T06:31:07.116Z,7.33
2023-04-19T06:33:48.869Z,7.42
2023-04-19T06:36:32.040Z,7.56
2023-04-19T06:39:01.311Z,7.50
2023-04-19T06:41:30.297Z,7.56
2023-04-19T06:43:59.075Z,7.57
2023-04-19T06:46:32.591Z,7.56
2023-04-19T06:49:03.184Z,7.55
2023-04-19T06:51:53.765Z,7.55
2023-04-19T06:54:26.193Z,7.64
2023-04-19T06:56:56.434Z,7.71
2023-04-19T06:59:29.865Z,7.83
2023-04-19T07:02:02.818Z,7.93
2023-04-19T07:04:31.827Z,8.06
2023-04-19T07:07:00.673Z,8.16
2023-04-19T07:09:36.603Z,8.26
2023-04-19T07:12:08.173Z,8.44
2023-04-19T07:14:40.190Z,8.53
2023-04-19T07:17:19.109Z,8.69
2023-04-19T07:19:50.310Z,8.80
2023-04-19T07:22:24.583Z,8.92
2023-04-19T07:24:53.927Z,9.03
2023-04-19T07:27:25.257Z,9.16
2023-04-19T07:29:55.173Z,9.26
2023-04-19T07:32:26.463Z,9.34
2023-04-19T07:34:55.911Z,9.42
2023-04-19T07:37:29.550Z,9.42
2023-04-19T07:39:58.623Z,9.45
2023-04-19T07:42:27.652Z,9.49
2023-04-19T07:45:00.028Z,9.58
2023-04-19T07:47:32.006Z,9.63
2023-04-19T07:50:01.800Z,9.70
2023-04-19T07:52:30.593Z,9.78
2023-04-19T07:55:01.981Z,9.85
2023-04-19T07:57:32.981Z,9.92
2023-04-19T08:00:02.609Z,9.93
2023-04-19T08:02:33.495Z,9.99
2023-04-19T08:05:10.368Z,10.17
2023-04-19T08:07:40.648Z,10.31
2023-04-19T08:10:11.269Z,10.38
2023-04-19T08:12:57.032Z,10.42
2023-04-19T08:18:07.349Z,10.57
2023-04-19T08:20:37.224Z,10.66
2023-04-19T08:23:20.468Z,10.78
2023-04-19T08:25:53.771Z,10.87
2023-04-19T08:28:23.836Z,10.95
2023-04-19T08:30:52.588Z,11.12
2023-04-19T08:33:25.169Z,11.28
2023-04-19T08:35:55.579Z,11.33
2023-04-19T08:38:28.985Z,11.43
2023-04-19T08:40:57.733Z,11.35
2023-04-19T08:43:40.570Z,11.27
2023-04-19T08:46:12.452Z,11.42
2023-04-19T08:48:50.942Z,11.48
2023-04-19T08:51:25.552Z,11.55
2023-04-19T08:53:56.528Z,11.62
2023-04-19T08:56:35.386Z,11.75
2023-04-19T09:01:41.647Z,11.92
2023-04-19T09:04:27.043Z,11.83
2023-04-19T09:07:03.039Z,11.88
2023-04-19T09:09:39.231Z,11.93
2023-04-19T09:12:27.714Z,12.05
2023-04-19T09:15:01.944Z,12.13
2023-04-19T09:17:33.246Z,12.21
2023-04-19T09:20:04.426Z,12.30
2023-04-19T09:22:34.078Z,12.32
2023-04-19T09:25:34.378Z,12.39
2023-04-19T09:27:51.774Z,12.40
2023-04-19T09:30:32.584Z,12.43
2023-04-19T09:33:04.972Z,12.35
2023-04-19T09:35:45.054Z,12.38
2023-04-19T09:38:15.847Z,12.30
2023-04-19T09:40:48.735Z,12.41
2023-04-19T09:46:08.643Z,12.72
2023-04-19T09:48:37.759Z,12.79
2023-04-19T09:51:14.399Z,12.94
2023-04-19T09:53:45.270Z,13.02
2023-04-19T09:56:14.245Z,13.15
2023-04-19T09:58:51.158Z,13.22
2023-04-19T10:01:30.115Z,13.27
2023-04-19T10:04:14.461Z,13.33
2023-04-19T10:07:07.432Z,13.41
2023-04-19T10:09:52.458Z,13.40
2023-04-19T10:14:59.868Z,13.25
2023-04-19T10:17:28.707Z,13.31
2023-04-19T10:20:03.531Z,13.29
2023-04-19T10:22:35.588Z,13.39
2023-04-19T10:25:13.374Z,13.29
2023-04-19T10:27:49.150Z,13.20
2023-04-19T10:30:24.217Z,13.26
2023-04-19T10:32:56.655Z,13.43
2023-04-19T10:35:29.798Z,13.54
2023-04-19T10:38:08.628Z,13.46
2023-04-19T10:40:56.727Z,13.49
2023-04-19T10:43:26.388Z,13.43
2023-04-19T10:45:55.085Z,13.46
2023-04-19T10:48:54.017Z,13.49
2023-04-19T10:51:28.371Z,13.51
2023-04-19T10:54:00.235Z,13.58
2023-04-19T10:57:02.672Z,13.59
2023-04-19T10:59:32.388Z,13.62
2023-04-19T11:02:05.682Z,13.53
2023-04-19T11:05:11.682Z,13.50
2023-04-19T11:07:42.822Z,13.56
2023-04-19T11:10:13.973Z,13.53
2023-04-19T11:12:46.429Z,13.52
2023-04-19T11:15:15.230Z,13.59
2023-04-19T11:20:29.907Z,13.71
2023-04-19T11:23:01.184Z,13.77
2023-04-19T11:25:35.920Z,13.78
2023-04-19T11:28:04.437Z,13.78
2023-04-19T11:30:34.000Z,13.73
2023-04-19T11:33:03.084Z,13.73
2023-04-19T11:35:36.381Z,13.67
2023-04-19T11:38:05.780Z,13.70
2023-04-19T11:40:37.866Z,13.76
2023-04-19T11:43:07.208Z,13.81
2023-04-19T11:45:43.327Z,13.78
2023-04-19T11:48:16.697Z,13.84
2023-04-19T11:50:52.616Z,13.89
2023-04-19T11:53:24.232Z,13.85
2023-04-19T11:55:58.131Z,13.98
2023-04-19T11:58:31.583Z,14.05
2023-04-19T12:01:06.957Z,14.15
2023-04-19T12:03:58.892Z,14.12
2023-04-19T12:06:30.798Z,14.20
2023-04-19T12:08:59.453Z,14.12
2023-04-19T12:11:45.452Z,14.12
2023-04-19T12:14:17.031Z,14.11
2023-04-19T12:16:46.595Z,14.12
2023-04-19T12:19:19.100Z,14.26
2023-04-19T12:21:48.792Z,14.27
2023-04-19T12:24:18.405Z,14.22
2023-04-19T12:26:58.954Z,14.19
2023-04-19T12:29:31.120Z,14.28
2023-04-19T12:32:01.362Z,14.26
2023-04-19T12:34:30.407Z,14.32
2023-04-19T12:36:59.594Z,14.36
2023-04-19T12:39:29.027Z,14.39
2023-04-19T12:42:01.074Z,14.47
2023-04-19T12:44:31.955Z,14.50
2023-04-19T12:47:21.559Z,14.48
2023-04-19T12:52:55.353Z,14.49
2023-04-19T12:55:28.325Z,14.40
2023-04-19T12:57:59.488Z,14.43
2023-04-19T13:00:30.709Z,14.54
2023-04-19T13:03:00.241Z,14.55
2023-04-19T13:05:47.297Z,14.67
2023-04-19T13:08:28.233Z,14.65
2023-04-19T13:11:09.790Z,14.65
2023-04-19T13:14:00.045Z,14.60
2023-04-19T13:16:56.001Z,14.64
2023-04-19T13:19:27.634Z,14.57
2023-04-19T13:22:07.360Z,14.60
2023-04-19T13:24:37.515Z,14.72
2023-04-19T13:27:29.901Z,14.76
2023-04-19T13:30:01.187Z,14.81
2023-04-19T13:32:32.542Z,14.84
2023-04-19T13:35:09.151Z,14.88
2023-04-19T13:37:38.298Z,14.89
2023-04-19T13:40:27.427Z,14.88
2023-04-19T13:43:01.873Z,14.90
2023-04-19T13:45:56.270Z,14.86
2023-04-19T13:48:29.368Z,14.88
2023-04-19T13:51:02.128Z,14.91
2023-04-19T13:53:45.063Z,14.88
2023-04-19T13:56:14.387Z,14.81
2023-04-19T13:58:44.355Z,14.78
2023-04-19T14:01:14.352Z,14.84
2023-04-19T14:03:43.194Z,15.01
2023-04-19T14:06:11.719Z,14.98
2023-04-19T14:08:40.402Z,14.92
2023-04-19T14:11:08.847Z,14.95
2023-04-19T14:13:37.959Z,14.80
2023-04-19T14:16:07.001Z,14.86
2023-04-19T14:18:36.857Z,14.87
2023-04-19T14:21:07.297Z,14.92
2023-04-19T14:23:36.076Z,14.98
2023-04-19T14:26:04.544Z,15.10
2023-04-19T14:28:33.168Z,15.23
2023-04-19T14:31:01.642Z,15.33
2023-04-19T14:33:32.837Z,15.41
2023-04-19T14:36:03.661Z,15.34
2023-04-19T14:38:36.694Z,15.32
2023-04-19T14:41:05.213Z,15.24
2023-04-19T14:43:33.747Z,15.05
2023-04-19T14:46:02.163Z,15.05
2023-04-19T14:48:32.217Z,15.00
2023-04-19T14:51:02.045Z,14.83
2023-04-19T14:53:34.092Z,14.77
2023-04-19T14:56:07.643Z,14.78
2023-04-19T14:58:37.427Z,14.86
2023-04-19T15:01:13.661Z,14.85
2023-04-19T15:03:42.831Z,14.87
2023-04-19T15:06:12.582Z,14.83
2023-04-19T15:08:43.428Z,14.74
2023-04-19T15:11:12.404Z,14.83
2023-04-19T15:13:40.634Z,14.67
2023-04-19T15:16:13.298Z,14.55
2023-04-19T15:18:41.815Z,14.51
2023-04-19T15:21:15.178Z,14.47
2023-04-19T15:23:45.331Z,14.60
2023-04-19T15:26:15.916Z,14.59
2023-04-19T15:28:44.529Z,14.66
2023-04-19T15:31:13.123Z,14.80
2023-04-19T15:33:42.337Z,15.17
2023-04-19T15:36:14.614Z,15.90
2023-04-19T15:38:48.080Z,17.07
2023-04-19T15:41:33.510Z,18.33
2023-04-19T15:44:02.192Z,19.40
2023-04-19T15:46:31.854Z,20.28
2023-04-19T15:49:00.416Z,21.20
2023-04-19T15:51:29.157Z,21.50
2023-04-19T15:53:59.276Z,21.55
2023-04-19T15:56:33.984Z,21.54
2023-04-19T15:59:02.514Z,21.48
2023-04-19T16:01:31.020Z,21.49
2023-04-19T16:04:00.966Z,21.53
2023-04-19T16:06:31.251Z,21.50
2023-04-19T16:09:01.277Z,21.64
2023-04-19T16:11:36.777Z,21.74
2023-04-19T16:14:05.204Z,21.63
2023-04-19T16:16:34.912Z,21.61
2023-04-19T16:19:03.532Z,21.26
2023-04-19T16:21:32.266Z,21.34
2023-04-19T16:24:02.911Z,21.48
2023-04-19T16:26:31.920Z,21.69
2023-04-19T16:29:03.354Z,21.81
2023-04-19T16:31:34.537Z,21.75
2023-04-19T16:34:03.676Z,21.58
2023-04-19T16:36:33.624Z,21.48
2023-04-19T16:39:06.603Z,21.63
2023-04-19T16:41:37.181Z,21.79
2023-04-19T16:44:06.221Z,21.94
2023-04-19T16:46:36.380Z,22.07
2023-04-19T16:49:05.409Z,21.87
2023-04-19T16:51:34.028Z,21.79
2023-04-19T16:54:02.944Z,21.78
2023-04-19T16:56:33.701Z,21.82
2023-04-19T16:59:03.229Z,21.90
2023-04-19T17:01:33.145Z,21.56
2023-04-19T17:04:02.027Z,20.96
2023-04-19T17:06:32.420Z,20.35
2023-04-19T17:09:05.220Z,19.84
2023-04-19T17:11:35.584Z,19.24
2023-04-19T17:14:03.998Z,18.95
2023-04-19T17:16:32.425Z,19.18
2023-04-19T17:19:01.156Z,19.18
2023-04-19T17:21:30.017Z,19.11
2023-04-19T17:24:00.967Z,19.18
2023-04-19T17:26:30.002Z,18.91
2023-04-19T17:29:01.763Z,18.48
2023-04-19T17:31:30.951Z,18.03
2023-04-19T17:33:59.508Z,17.37
2023-04-19T17:36:33.426Z,16.76
2023-04-19T17:39:04.346Z,16.62
2023-04-19T17:41:33.017Z,16.72
2023-04-19T17:44:03.161Z,16.70
2023-04-19T17:46:31.829Z,16.73
2023-04-19T17:49:02.773Z,16.71
2023-04-19T17:51:34.642Z,16.68
2023-04-19T17:54:32.654Z,16.55
2023-04-19T17:57:02.710Z,16.28
2023-04-19T17:59:40.537Z,15.81
2023-04-19T18:02:12.388Z,15.28
2023-04-19T18:08:24.729Z,14.11
2023-04-19T18:10:59.102Z,13.52
2023-04-19T18:13:31.984Z,13.04
2023-04-19T18:16:04.908Z,12.64
2023-04-19T18:18:34.271Z,12.24
2023-04-19T18:21:15.182Z,11.94
2023-04-19T18:23:50.372Z,11.66
2023-04-19T18:26:24.219Z,11.43
2023-04-19T18:28:58.986Z,11.16
2023-04-19T18:31:32.218Z,11.01
2023-04-19T18:34:01.680Z,10.79
2023-04-19T18:36:31.920Z,10.63
2023-04-19T18:39:07.646Z,10.49
2023-04-19T18:41:37.057Z,10.28
2023-04-19T18:46:43.566Z,10.05
2023-04-19T18:49:22.925Z,9.93
2023-04-19T18:51:54.889Z,9.74
2023-04-19T18:54:25.290Z,9.59
2023-04-19T18:59:28.431Z,9.41
2023-04-19T19:02:00.303Z,9.34
2023-04-19T19:04:48.236Z,9.28
2023-04-19T19:07:33.831Z,9.14
2023-04-19T19:10:16.766Z,9.12
2023-04-19T19:12:48.330Z,9.04
2023-04-19T19:15:25.678Z,8.94
2023-04-19T19:18:10.119Z,8.91
2023-04-19T19:20:41.976Z,8.82
2023-04-19T19:26:00.320Z,8.69
2023-04-19T19:28:29.176Z,8.64
2023-04-19T19:30:59.746Z,8.58
2023-04-19T19:33:32.361Z,8.53
2023-04-19T19:36:03.214Z,8.51
2023-04-19T19:38:32.226Z,8.41
2023-04-19T19:41:41.739Z,8.40
2023-04-19T19:43:50.009Z,8.28
2023-04-19T19:46:23.281Z,8.20
2023-04-19T19:48:54.332Z,8.18
2023-04-19T19:51:52.003Z,8.14
2023-04-19T19:54:15.760Z,8.04
2023-04-19T19:57:16.955Z,8.01
2023-04-19T19:59:35.431Z,7.88
2023-04-19T20:02:07.267Z,7.79
2023-04-19T20:04:39.106Z,7.66
2023-04-19T20:09:43.459Z,7.45
2023-04-19T20:12:16.356Z,7.32
2023-04-19T20:14:49.210Z,7.23
2023-04-19T20:17:20.371Z,7.16
2023-04-19T20:19:53.770Z,7.02
2023-04-19T20:22:22.734Z,6.98
2023-04-19T20:24:53.224Z,6.89
2023-04-19T20:27:24.624Z,6.79
2023-04-19T20:29:55.100Z,6.67
2023-04-19T20:32:24.578Z,6.63
2023-04-19T20:34:55.840Z,6.55
2023-04-19T20:37:29.426Z,6.46
2023-04-19T20:39:58.805Z,6.32
2023-04-19T20:42:28.024Z,6.28
2023-04-19T20:44:59.161Z,6.20
2023-04-19T20:47:30.058Z,6.09
2023-04-19T20:50:00.724Z,6.02
2023-04-19T20:52:30.024Z,5.99
2023-04-19T20:55:02.453Z,5.92
2023-04-19T20:57:31.320Z,5.82
2023-04-19T21:00:00.911Z,5.79
2023-04-19T21:02:30.965Z,5.70
2023-04-19T21:05:04.095Z,5.67
2023-04-19T21:07:33.358Z,5.65
2023-04-19T21:10:04.286Z,5.64
2023-04-19T21:12:33.656Z,5.62
2023-04-19T21:15:05.484Z,5.54
2023-04-19T21:17:34.434Z,5.49
2023-04-19T21:20:12.798Z,5.46
2023-04-19T21:22:45.238Z,5.41
2023-04-19T21:25:15.344Z,5.36
2023-04-19T21:27:45.650Z,5.30
2023-04-19T21:30:17.282Z,5.20
2023-04-19T21:32:48.388Z,5.13
2023-04-19T21:35:19.982Z,5.09
2023-04-19T21:37:51.087Z,5.07
2023-04-19T21:40:23.199Z,5.01
2023-04-19T21:42:56.527Z,4.95
2023-04-19T21:45:25.782Z,4.90
2023-04-19T21:47:55.274Z,4.81
2023-04-19T21:50:26.603Z,4.70
2023-04-19T21:52:58.974Z,4.65
2023-04-19T21:55:28.715Z,4.61
2023-04-19T21:57:57.534Z,4.51
2023-04-19T22:00:27.122Z,4.48
2023-04-19T22:02:55.990Z,4.43
2023-04-19T22:05:26.825Z,4.37
2023-04-19T22:07:58.052Z,4.32
2023-04-19T22:10:28.458Z,4.29
2023-04-19T22:12:59.022Z,4.21
2023-04-19T22:15:29.384Z,4.24
2023-04-19T22:17:58.553Z,4.19
2023-04-19T22:20:29.445Z,4.15
2023-04-19T22:22:58.173Z,4.07
2023-04-19T22:25:28.300Z,4.02
2023-04-19T22:27:58.678Z,3.97
2023-04-19T22:30:31.247Z,3.98
2023-04-19T22:33:00.309Z,3.92
2023-04-19T22:35:31.591Z,3.83
2023-04-19T22:38:02.376Z,3.81
2023-04-19T22:40:31.790Z,3.78
2023-04-19T22:43:00.573Z,3.72
2023-04-19T22:45:29.564Z,3.67
2023-04-19T22:47:59.052Z,3.64
2023-04-19T22:50:30.518Z,3.53
2023-04-19T22:53:01.452Z,3.50
2023-04-19T22:55:30.165Z,3.41
2023-04-19T22:58:02.423Z,3.37
2023-04-19T23:00:32.228Z,3.38
2023-04-19T23:03:01.388Z,3.31
2023-04-19T23:05:30.940Z,3.22
2023-04-19T23:08:06.185Z,3.15
2023-04-19T23:10:38.570Z,3.12
2023-04-19T23:13:10.961Z,3.03
2023-04-19T23:15:40.212Z,2.96
2023-04-19T23:18:09.057Z,2.97
2023-04-19T23:20:38.076Z,2.86
2023-04-19T23:23:09.967Z,2.81
2023-04-19T23:25:40.860Z,2.84
2023-04-19T23:28:12.422Z,2.78
2023-04-19T23:30:41.420Z,2.75
2023-04-19T23:33:09.903Z,2.71
2023-04-19T23:35:39.228Z,2.66
2023-04-19T23:38:12.233Z,2.64
2023-04-19T23:40:40.932Z,2.65
2023-04-19T23:43:11.573Z,2.66
2023-04-19T23:45:41.126Z,2.62
2023-04-19T23:48:13.014Z,2.56
2023-04-19T23:50:42.121Z,2.48
2023-04-19T23:53:13.563Z,2.45
2023-04-19T23:55:42.623Z,2.43
2023-04-19T23:58:11.685Z,2.37
